| Temperature (°F) | Max | Average | Min |
|---|---|---|---|
| Max Temperature | 86 | 74.13 | 61 |
| Avg Temperature | 73.08 | 64.64 | 52.17 |
| Min Temperature | 66 | 55.4 | 41 |
| Dew Point (°F) | Max | Average | Min |
|---|---|---|---|
| Dew Point | 72 | 55.39 | 30 |
| Precipitation (in) | Max | Average | Min | Sum |
|---|---|---|---|---|
| Precipitation | 0.00 | 0.00 | 0.00 | 0.00 |
| Snowdepth | 0.00 | 0.00 | 0.00 | 0.00 |
| Wind (mph) | Max | Average | Min |
|---|---|---|---|
| Wind | 128 | 6.44 | 0 |
| Gust Wind | 39 | 1.64 | 0 |
| Sea Level Pressure (in) | Max | Average | Min |
|---|---|---|---|
| Sea Level Pressure | 29.85 | 29.48 | 29.05 |
| Date | Temperature (°F) | Dew Point (°F) | Humidity (%) | Wind Speed (mph) | Pressure (in) | Precipitation (in) | ||||||||||
|---|---|---|---|---|---|---|---|---|---|---|---|---|---|---|---|---|
| Max | Avg | Min | Max | Avg | Min | Max | Avg | Min | Max | Avg | Min | Max | Avg | Min | ||
| 9/30/2022 | 61 | 53.8 | 45 | 48 | 45.2 | 41 | 87 | 73.6 | 59 | 12 | 5.7 | 0 | 29.8 | 29.8 | 29.7 | 0.00 |
| 9/29/2022 | 64 | 54.0 | 43 | 46 | 44.9 | 41 | 93 | 73.5 | 49 | 104 | 10.4 | 0 | 29.9 | 29.8 | 29.7 | 0.00 |
| 9/28/2022 | 68 | 56.4 | 46 | 52 | 48.2 | 45 | 93 | 75.3 | 56 | 14 | 8.9 | 5 | 29.7 | 29.6 | 29.4 | 0.00 |
| 9/27/2022 | 63 | 56.7 | 50 | 50 | 47.2 | 45 | 88 | 71.7 | 59 | 14 | 7.5 | 0 | 29.4 | 29.3 | 29.2 | 0.00 |
| 9/26/2022 | 72 | 61.3 | 54 | 57 | 53.6 | 48 | 100 | 77.8 | 50 | 16 | 8.8 | 0 | 29.3 | 29.2 | 29.1 | 0.00 |
| 9/25/2022 | 68 | 59.6 | 50 | 59 | 52.8 | 46 | 88 | 79.2 | 64 | 14 | 4.0 | 0 | 29.4 | 29.2 | 29.1 | 0.00 |
| 9/24/2022 | 68 | 53.2 | 41 | 46 | 42.0 | 37 | 87 | 68.8 | 45 | 10 | 6.5 | 0 | 29.5 | 29.4 | 29.4 | 0.00 |
| 9/23/2022 | 61 | 52.2 | 45 | 45 | 36.7 | 30 | 87 | 58.0 | 31 | 128 | 16.3 | 0 | 29.5 | 29.4 | 29.3 | 0.00 |
| 9/22/2022 | 68 | 63.6 | 52 | 66 | 56.3 | 45 | 100 | 78.3 | 46 | 18 | 9.4 | 0 | 29.3 | 29.1 | 29.1 | 0.00 |
| 9/21/2022 | 79 | 68.1 | 55 | 63 | 58.4 | 54 | 94 | 73.0 | 54 | 10 | 4.4 | 0 | 29.5 | 29.4 | 29.3 | 0.00 |
| 9/20/2022 | 73 | 67.3 | 61 | 63 | 60.3 | 57 | 100 | 78.8 | 61 | 16 | 9.3 | 0 | 29.4 | 29.4 | 29.3 | 0.00 |
| 9/19/2022 | 82 | 71.6 | 63 | 66 | 63.7 | 63 | 100 | 77.8 | 51 | 23 | 8.5 | 0 | 29.4 | 29.4 | 29.3 | 0.00 |
| 9/18/2022 | 82 | 71.3 | 59 | 64 | 62.2 | 57 | 94 | 74.8 | 54 | 13 | 6.7 | 0 | 29.6 | 29.5 | 29.4 | 0.00 |
| 9/17/2022 | 73 | 65.8 | 59 | 59 | 55.1 | 52 | 88 | 69.1 | 56 | 12 | 6.0 | 0 | 29.8 | 29.7 | 29.6 | 0.00 |
| 9/16/2022 | 72 | 59.8 | 45 | 52 | 45.6 | 39 | 93 | 63.0 | 33 | 12 | 1.9 | 0 | 29.7 | 29.7 | 29.6 | 0.00 |
| 9/15/2022 | 72 | 62.6 | 50 | 59 | 46.5 | 41 | 88 | 58.8 | 33 | 14 | 7.5 | 0 | 29.7 | 29.6 | 29.5 | 0.00 |
| 9/14/2022 | 77 | 66.9 | 57 | 61 | 57.4 | 54 | 94 | 73.4 | 50 | 16 | 10.2 | 0 | 29.5 | 29.4 | 29.3 | 0.00 |
| 9/13/2022 | 82 | 73.1 | 66 | 70 | 67.7 | 57 | 100 | 84.0 | 66 | 15 | 6.4 | 0 | 29.3 | 29.2 | 29.2 | 0.00 |
| 9/12/2022 | 77 | 69.4 | 64 | 70 | 66.0 | 64 | 100 | 89.7 | 69 | 6 | 3.0 | 0 | 29.4 | 29.3 | 29.3 | 0.00 |
| 9/11/2022 | 72 | 66.7 | 64 | 66 | 61.5 | 55 | 100 | 83.9 | 64 | 9 | 2.8 | 0 | 29.7 | 29.6 | 29.5 | 0.00 |
| 9/10/2022 | 84 | 70.2 | 57 | 57 | 54.7 | 50 | 88 | 61.8 | 32 | 7 | 2.1 | 0 | 29.7 | 29.7 | 29.7 | 0.00 |
| 9/9/2022 | 81 | 66.7 | 55 | 63 | 56.7 | 52 | 100 | 75.1 | 39 | 6 | 2.4 | 0 | 29.7 | 29.5 | 29.4 | 0.00 |
| 9/8/2022 | 79 | 68.0 | 57 | 63 | 59.2 | 54 | 100 | 76.5 | 42 | 8 | 3.5 | 0 | 29.5 | 29.4 | 29.4 | 0.00 |
| 9/7/2022 | 70 | 65.3 | 63 | 63 | 62.9 | 61 | 100 | 91.1 | 73 | 12 | 7.5 | 0 | 29.5 | 29.5 | 29.5 | 0.00 |
| 9/6/2022 | 68 | 66.6 | 64 | 68 | 66.0 | 63 | 100 | 98.3 | 94 | 14 | 8.6 | 0 | 29.5 | 29.5 | 29.5 | 0.00 |
| 9/5/2022 | 77 | 68.0 | 63 | 68 | 66.3 | 63 | 100 | 94.6 | 74 | 12 | 6.0 | 0 | 29.6 | 29.6 | 29.5 | 0.00 |
| 9/4/2022 | 86 | 72.9 | 66 | 72 | 66.3 | 63 | 94 | 81.1 | 51 | 12 | 1.9 | 0 | 29.7 | 29.6 | 29.5 | 0.00 |
| 9/3/2022 | 82 | 70.5 | 57 | 63 | 59.2 | 55 | 94 | 69.7 | 47 | 8 | 3.6 | 0 | 29.8 | 29.7 | 29.6 | 0.00 |
| 9/2/2022 | 79 | 67.1 | 50 | 54 | 48.4 | 46 | 87 | 54.5 | 32 | 8 | 4.6 | 0 | 29.7 | 29.7 | 29.6 | 0.00 |
| 9/1/2022 | 84 | 70.7 | 61 | 57 | 50.6 | 45 | 77 | 52.2 | 28 | 16 | 8.9 | 0 | 29.6 | 29.4 | 29.3 | 0.00 |